Time;durP1;ratioP1;P1;durP2;ratioP2;P2;SDS_P1;SDS_P2;PMS_P1;PMS_P2;Temp;Humidity;BMP_temperature;BMP_pressure;BME280_temperature;BME280_humidity;BME280_pressure;Samples;Min_cycle;Max_cycle;Signal;HPM_P1;HPM_P2
2022/04/26 03:36:11;;;;;;;4.38;2.63;;;21.90;51.90;;;;;;4953323;28;20046;-73
2022/04/26 03:38:43;;;;;;;4.03;2.53;;;21.90;52.50;;;;;;4953419;28;20404;-73
2022/04/26 03:41:10;;;;;;;5.07;2.55;;;21.90;51.90;;;;;;4953099;28;20035;-73
2022/04/26 03:43:37;;;;;;;4.47;2.60;;;21.90;51.90;;;;;;4951448;28;20411;-73
2022/04/26 03:46:03;;;;;;;4.88;2.58;;;21.90;51.90;;;;;;4953360;28;20031;-73
2022/04/26 03:48:29;;;;;;;5.13;2.80;;;21.90;51.90;;;;;;4953395;28;20027;-73
2022/04/26 03:50:55;;;;;;;5.32;2.90;;;21.90;51.90;;;;;;4953130;28;20400;-74
2022/04/26 03:53:20;;;;;;;4.55;2.50;;;21.90;51.80;;;;;;4952823;28;20027;-74
2022/04/26 03:55:46;;;;;;;5.43;2.72;;;21.90;51.90;;;;;;4953100;28;20538;-74
2022/04/26 03:58:13;;;;;;;4.90;2.40;;;21.90;51.80;;;;;;4952838;28;20035;-74
2022/04/26 04:00:39;;;;;;;4.75;2.63;;;21.90;51.80;;;;;;4952943;28;20403;-74
2022/04/26 04:03:05;;;;;;;3.92;2.50;;;21.90;51.90;;;;;;4952799;28;20027;-74
2022/04/26 04:05:32;;;;;;;4.40;2.45;;;21.90;51.90;;;;;;4952923;28;20424;-74
2022/04/26 04:07:57;;;;;;;4.05;2.40;;;21.90;51.90;;;;;;4953016;28;20032;-74
2022/04/26 04:10:23;;;;;;;5.80;2.67;;;21.90;51.80;;;;;;4952831;28;20043;-74
2022/04/26 04:12:50;;;;;;;4.13;2.50;;;21.90;51.70;;;;;;4952683;28;20054;-74
2022/04/26 04:15:16;;;;;;;4.03;2.53;;;21.90;51.70;;;;;;4953043;28;20035;-74
2022/04/26 04:17:42;;;;;;;4.55;2.75;;;21.90;51.70;;;;;;4951950;29;20086;-74
2022/04/26 04:20:10;;;;;;;4.18;2.70;;;21.90;51.70;;;;;;4952901;28;20440;-74
2022/04/26 04:22:35;;;;;;;4.70;2.70;;;21.90;51.70;;;;;;4951547;29;20403;-74
2022/04/26 04:25:01;;;;;;;3.22;2.30;;;21.90;51.70;;;;;;4952517;28;20023;-74
2022/04/26 04:27:27;;;;;;;4.78;2.72;;;21.90;51.70;;;;;;4951845;29;20412;-74
2022/04/26 04:29:53;;;;;;;4.38;2.40;;;21.90;51.70;;;;;;4952482;29;20501;-74
2022/04/26 04:32:18;;;;;;;5.13;3.03;;;21.90;51.70;;;;;;4951900;29;20031;-73
2022/04/26 04:34:44;;;;;;;4.38;2.80;;;21.90;51.70;;;;;;4952462;28;20031;-73
2022/04/26 04:37:10;;;;;;;5.03;2.75;;;21.90;51.70;;;;;;4953119;28;20024;-73
2022/04/26 04:39:36;;;;;;;3.92;2.60;;;21.90;51.70;;;;;;4952875;28;20027;-73
2022/04/26 04:42:03;;;;;;;4.13;2.80;;;21.90;51.70;;;;;;4951262;29;20221;-73
2022/04/26 04:44:29;;;;;;;4.75;2.85;;;21.90;51.60;;;;;;4952417;28;20038;-73
2022/04/26 04:47:00;;;;;;;4.68;2.88;;;21.90;52.30;;;;;;4952759;28;20031;-74
2022/04/26 04:49:26;;;;;;;4.25;2.67;;;21.90;51.70;;;;;;4952629;28;20367;-73
2022/04/26 04:51:52;;;;;;;3.97;2.40;;;21.90;51.70;;;;;;4952550;28;20027;-73
2022/04/26 04:54:18;;;;;;;4.68;2.90;;;21.90;51.70;;;;;;4952265;28;20031;-74
2022/04/26 04:56:44;;;;;;;3.55;2.03;;;21.90;51.70;;;;;;4956161;28;20496;-74
2022/04/26 04:59:10;;;;;;;4.65;2.90;;;21.90;51.70;;;;;;4956441;28;20373;-73
2022/04/26 05:01:35;;;;;;;4.85;2.70;;;21.90;51.70;;;;;;4956090;28;20106;-74
2022/04/26 05:04:01;;;;;;;4.57;2.38;;;21.90;51.70;;;;;;4954568;29;20070;-73
2022/04/26 05:06:27;;;;;;;4.50;2.60;;;21.90;51.70;;;;;;4954933;29;20047;-73
2022/04/26 05:08:52;;;;;;;4.55;2.88;;;21.90;51.70;;;;;;4955024;29;20023;-74
2022/04/26 05:11:18;;;;;;;3.50;2.50;;;21.90;51.60;;;;;;4955874;28;20031;-73
2022/04/26 05:13:44;;;;;;;5.72;2.92;;;21.90;51.70;;;;;;4955539;28;20078;-74
2022/04/26 05:16:10;;;;;;;4.47;2.50;;;21.90;51.60;;;;;;4956235;28;20054;-73
2022/04/26 05:18:36;;;;;;;4.55;2.78;;;21.90;51.60;;;;;;4955918;28;20062;-73
2022/04/26 05:21:05;;;;;;;5.93;2.70;;;21.90;51.60;;;;;;4955697;28;20042;-73
2022/04/26 05:26:17;;;;;;;4.97;2.95;;;21.90;51.70;;;;;;4955799;28;20106;-74
2022/04/26 05:28:43;;;;;;;4.55;3.00;;;21.90;51.50;;;;;;4955584;28;20028;-73
2022/04/26 05:31:09;;;;;;;6.43;2.58;;;21.90;51.50;;;;;;4955521;28;20370;-73
2022/04/26 05:33:34;;;;;;;4.03;2.70;;;21.90;51.50;;;;;;4955311;28;20518;-74
2022/04/26 05:36:00;;;;;;;4.30;3.00;;;21.90;51.50;;;;;;4955475;28;20130;-73
2022/04/26 05:38:26;;;;;;;4.05;2.83;;;21.90;51.40;;;;;;4955565;28;20034;-73
2022/04/26 05:40:52;;;;;;;4.32;2.72;;;22.00;51.50;;;;;;4955338;28;20491;-74
2022/04/26 05:43:17;;;;;;;4.25;2.60;;;21.90;51.50;;;;;;4955506;28;20452;-73
2022/04/26 05:45:43;;;;;;;5.55;2.75;;;21.90;51.50;;;;;;4955156;28;20055;-74
2022/04/26 05:48:09;;;;;;;5.13;2.80;;;21.90;51.50;;;;;;4938709;29;20484;-74
2022/04/26 05:50:35;;;;;;;5.13;3.03;;;21.90;51.40;;;;;;4955114;28;20487;-73
2022/04/26 05:53:01;;;;;;;4.35;2.65;;;21.90;51.40;;;;;;4953684;29;20365;-74
2022/04/26 05:55:26;;;;;;;4.43;2.95;;;21.90;51.40;;;;;;4953974;29;20369;-74
2022/04/26 05:57:52;;;;;;;4.55;3.25;;;21.90;51.50;;;;;;4955374;28;20054;-74
2022/04/26 06:00:18;;;;;;;4.45;2.67;;;21.90;51.30;;;;;;4955139;28;20027;-74
2022/04/26 06:02:44;;;;;;;7.32;3.03;;;21.90;51.30;;;;;;4953927;29;20043;-74
2022/04/26 06:05:10;;;;;;;4.70;2.67;;;21.90;51.50;;;;;;4954747;28;20035;-74
2022/04/26 06:07:36;;;;;;;5.45;2.80;;;21.90;51.40;;;;;;4954844;28;20476;-74
2022/04/26 06:10:03;;;;;;;4.40;2.70;;;21.90;51.40;;;;;;4954745;28;20516;-74
2022/04/26 06:12:29;;;;;;;4.45;2.75;;;21.90;51.40;;;;;;4955096;28;20029;-74
2022/04/26 06:14:55;;;;;;;6.60;2.90;;;21.90;51.40;;;;;;4954397;28;20039;-74
2022/04/26 06:17:21;;;;;;;3.75;2.63;;;21.90;51.50;;;;;;4955019;28;20038;-73
2022/04/26 06:19:47;;;;;;;6.13;3.03;;;21.90;51.40;;;;;;4954622;28;20507;-74
2022/04/26 06:22:13;;;;;;;5.00;2.95;;;21.90;51.30;;;;;;4954851;28;20089;-74
2022/04/26 06:24:39;;;;;;;5.15;2.80;;;22.00;51.30;;;;;;4954690;28;20487;-74
2022/04/26 06:27:04;;;;;;;5.22;2.92;;;22.00;51.40;;;;;;4954867;28;20024;-74
2022/04/26 06:29:30;;;;;;;4.70;2.90;;;22.00;51.40;;;;;;4954404;28;20028;-74
2022/04/26 06:31:56;;;;;;;5.07;2.83;;;22.00;51.50;;;;;;4953211;29;20114;-74
2022/04/26 06:34:22;;;;;;;4.05;2.42;;;22.00;51.50;;;;;;4952813;29;20031;-73
2022/04/26 06:36:47;;;;;;;5.63;3.03;;;22.00;51.40;;;;;;4953275;29;20571;-74
2022/04/26 06:39:13;;;;;;;4.25;2.75;;;22.00;51.40;;;;;;4954425;28;20031;-74
2022/04/26 06:41:39;;;;;;;4.63;2.75;;;22.00;51.30;;;;;;4937362;29;20074;-74
2022/04/26 06:44:05;;;;;;;4.82;2.50;;;22.00;51.30;;;;;;4936688;29;20097;-74
2022/04/26 06:46:30;;;;;;;4.90;2.63;;;22.00;51.30;;;;;;4954380;28;20035;-73
2022/04/26 06:49:00;;;;;;;4.82;2.80;;;22.00;51.30;;;;;;4954198;28;20035;-73
2022/04/26 06:51:26;;;;;;;3.13;2.30;;;22.00;51.40;;;;;;4937129;29;20122;-73
2022/04/26 06:53:51;;;;;;;3.35;2.50;;;22.00;51.40;;;;;;4953716;28;20078;-73
2022/04/26 06:56:17;;;;;;;5.55;3.10;;;22.00;51.50;;;;;;4952604;29;20039;-74
2022/04/26 06:58:43;;;;;;;5.10;3.00;;;22.00;51.50;;;;;;4953993;28;20034;-73
2022/04/26 07:01:09;;;;;;;4.13;2.75;;;22.00;51.70;;;;;;4953911;29;20094;-73
2022/04/26 07:03:34;;;;;;;3.60;2.50;;;22.10;51.70;;;;;;4952470;29;20067;-73
2022/04/26 07:06:00;;;;;;;3.72;2.53;;;22.10;51.80;;;;;;4952493;29;20035;-73
2022/04/26 07:08:26;;;;;;;4.28;2.70;;;22.10;51.90;;;;;;4936601;29;20027;-73
2022/04/26 07:10:52;;;;;;;4.25;2.60;;;22.10;51.70;;;;;;4952511;29;20106;-73
2022/04/26 07:13:21;;;;;;;4.97;2.85;;;22.10;51.90;;;;;;4953348;28;20039;-73
2022/04/26 07:15:47;;;;;;;4.80;2.67;;;22.10;51.90;;;;;;4952610;29;20412;-73
2022/04/26 07:18:13;;;;;;;3.92;2.60;;;22.10;52.00;;;;;;4952305;28;20046;-73
2022/04/26 07:20:40;;;;;;;4.40;2.80;;;22.10;52.00;;;;;;4953440;28;20039;-73
2022/04/26 07:23:07;;;;;;;4.80;2.53;;;22.10;52.00;;;;;;4953458;28;20024;-73
2022/04/26 07:25:33;;;;;;;3.67;2.50;;;22.10;52.00;;;;;;4953401;28;20023;-73
2022/04/26 07:27:59;;;;;;;4.03;2.75;;;22.10;52.10;;;;;;4953354;28;20046;-73
2022/04/26 07:30:34;;;;;;;4.40;2.65;;;22.10;52.60;;;;;;4953389;28;20099;-73
2022/04/26 07:35:49;;;;;;;3.92;2.88;;;22.20;52.10;;;;;;4953389;28;20061;-74
2022/04/26 07:38:14;;;;;;;4.10;2.55;;;22.20;51.90;;;;;;4953413;28;20122;-73
2022/04/26 07:40:41;;;;;;;4.30;2.67;;;22.20;52.10;;;;;;4953411;28;20179;-73
2022/04/26 07:43:06;;;;;;;3.63;2.60;;;22.20;51.90;;;;;;4953187;28;20035;-73
2022/04/26 07:45:35;;;;;;;4.22;2.60;;;22.20;52.10;;;;;;4953311;28;20019;-73
2022/04/26 07:48:01;;;;;;;4.10;2.75;;;22.20;52.10;;;;;;4953406;28;20031;-73
2022/04/26 07:50:28;;;;;;;4.75;2.50;;;22.20;52.10;;;;;;4953278;28;20031;-73
2022/04/26 07:52:54;;;;;;;4.35;2.63;;;22.20;52.10;;;;;;4952876;28;20026;-73
2022/04/26 07:55:19;;;;;;;5.22;2.70;;;22.20;52.10;;;;;;4951817;29;20062;-73
2022/04/26 07:57:45;;;;;;;3.90;2.45;;;22.20;52.10;;;;;;4953318;28;20032;-73
2022/04/26 08:00:11;;;;;;;3.97;2.35;;;22.20;52.10;;;;;;4952583;28;20090;-74
2022/04/26 08:02:39;;;;;;;4.15;2.38;;;22.20;52.10;;;;;;4953472;28;20027;-73
2022/04/26 08:05:05;;;;;;;3.97;2.63;;;22.20;52.10;;;;;;4951414;28;20423;-73
2022/04/26 08:07:33;;;;;;;3.08;2.30;;;22.20;52.10;;;;;;4952942;29;20030;-73
2022/04/26 08:09:58;;;;;;;3.72;2.67;;;22.20;52.10;;;;;;4952902;28;20603;-73
2022/04/26 08:12:24;;;;;;;3.50;2.50;;;22.20;52.10;;;;;;4953085;28;20114;-73
2022/04/26 08:14:50;;;;;;;4.22;2.63;;;22.20;52.10;;;;;;4952606;28;20484;-73
2022/04/26 08:17:15;;;;;;;3.90;2.45;;;22.20;52.10;;;;;;4952958;28;20170;-73
2022/04/26 08:19:42;;;;;;;3.95;2.67;;;22.20;52.10;;;;;;4952980;28;20036;-73
2022/04/26 08:22:08;;;;;;;3.30;2.50;;;22.20;52.10;;;;;;4952716;28;20035;-73
2022/04/26 08:27:30;;;;;;;4.47;2.72;;;22.20;52.10;;;;;;4952851;28;20023;-73
2022/04/26 08:30:00;;;;;;;3.70;2.38;;;22.20;52.10;;;;;;4953446;28;20078;-73
2022/04/26 08:32:29;;;;;;;8.70;3.05;;;22.30;52.00;;;;;;4951658;29;20031;-73
2022/04/26 08:34:55;;;;;;;8.13;2.53;;;22.30;51.20;;;;;;4953464;29;20039;-74
2022/04/26 08:37:21;;;;;;;4.45;2.58;;;22.20;50.20;;;;;;4955834;28;20523;-74
2022/04/26 08:39:48;;;;;;;6.60;2.65;;;22.10;48.50;;;;;;4943340;29;20112;-74
2022/04/26 08:42:14;;;;;;;8.48;2.42;;;22.00;40.80;;;;;;4949993;29;20035;-75
2022/04/26 08:44:40;;;;;;;3.83;2.28;;;21.90;38.80;;;;;;4955255;29;20110;-75
2022/04/26 08:52:46;;;;;;;5.20;2.45;;;21.70;35.60;;;;;;4956428;28;20050;-75
2022/04/26 08:55:12;;;;;;;4.65;2.42;;;21.60;36.20;;;;;;4956065;28;20035;-76
2022/04/26 08:57:37;;;;;;;4.22;2.10;;;21.50;33.60;;;;;;4955911;29;20069;-75
2022/04/26 09:00:11;;;;;;;4.95;2.00;;;21.50;33.80;;;;;;4939088;29;20035;-76
2022/04/26 09:02:38;;;;;;;11.48;4.82;;;21.40;34.10;;;;;;4939582;29;20110;-74
2022/04/26 09:05:13;;;;;;;23.85;12.30;;;21.40;33.30;;;;;;4938461;29;20122;-73
2022/04/26 09:07:40;;;;;;;24.58;11.23;;;21.40;33.30;;;;;;4955198;29;20035;-74
2022/04/26 09:10:09;;;;;;;17.80;8.77;;;21.40;33.30;;;;;;4955848;28;20023;-73
2022/04/26 09:13:05;;;;;;;16.02;7.80;;;21.40;33.40;;;;;;4956054;28;20110;-73
2022/04/26 09:15:39;;;;;;;13.18;5.53;;;21.50;35.10;;;;;;4954649;29;20031;-73
2022/04/26 09:18:27;;;;;;;13.73;5.50;;;21.60;35.40;;;;;;4956031;28;20066;-74
2022/04/26 09:21:06;;;;;;;21.38;5.82;;;21.70;36.30;;;;;;4954652;29;20037;-74
2022/04/26 09:23:32;;;;;;;17.40;5.38;;;21.80;37.20;;;;;;4955571;28;20046;-74
2022/04/26 09:26:12;;;;;;;10.68;4.43;;;21.80;38.10;;;;;;4955648;28;20032;-74
2022/04/26 09:28:42;;;;;;;19.70;5.28;;;21.90;38.30;;;;;;4955712;28;20031;-75
2022/04/26 09:31:18;;;;;;;17.50;5.13;;;22.00;39.10;;;;;;4955913;28;20031;-74
2022/04/26 09:33:49;;;;;;;16.05;4.90;;;22.00;39.10;;;;;;4937119;28;20377;-75
2022/04/26 09:36:17;;;;;;;15.82;4.68;;;22.00;38.90;;;;;;4936802;29;20035;-73
2022/04/26 09:38:53;;;;;;;14.48;5.00;;;22.00;38.90;;;;;;4936492;29;20032;-75
2022/04/26 09:41:19;;;;;;;11.35;4.60;;;22.00;38.90;;;;;;4935636;29;20027;-75
2022/04/26 09:44:02;;;;;;;9.90;4.40;;;22.00;39.10;;;;;;4934696;29;20128;-75
2022/04/26 09:46:40;;;;;;;12.23;4.78;;;22.00;40.30;;;;;;4936340;29;20108;-73
2022/04/26 09:49:06;;;;;;;11.73;4.28;;;22.00;39.80;;;;;;4920309;29;20114;-73
2022/04/26 09:51:32;;;;;;;11.63;4.72;;;22.00;40.20;;;;;;4932575;29;20501;-73
2022/04/26 09:53:58;;;;;;;15.07;4.47;;;22.10;40.40;;;;;;4934395;29;20040;-73
2022/04/26 09:56:28;;;;;;;11.40;4.40;;;22.00;40.60;;;;;;4936003;29;20023;-72
2022/04/26 09:58:56;;;;;;;;;;;22.10;40.90;;;;;;4919361;29;20063;-72
2022/04/26 10:01:27;;;;;;;9.52;4.45;;;22.10;41.10;;;;;;4935796;29;19911;-72
2022/04/26 10:04:02;;;;;;;12.73;4.45;;;22.00;41.30;;;;;;4935479;29;20079;-72
2022/04/26 10:06:37;;;;;;;14.98;4.65;;;22.00;41.50;;;;;;4935904;29;20087;-74
2022/04/26 10:09:08;;;;;;;14.57;4.30;;;22.00;41.80;;;;;;4935674;29;20028;-75
2022/04/26 10:11:34;;;;;;;11.98;4.80;;;22.00;41.90;;;;;;4935761;29;20519;-75
2022/04/26 10:14:06;;;;;;;9.88;3.80;;;22.10;42.10;;;;;;4935103;29;20079;-75
2022/04/26 10:16:32;;;;;;;8.82;4.10;;;22.10;42.30;;;;;;4934460;29;20043;-75
2022/04/26 10:19:09;;;;;;;10.35;4.50;;;22.00;42.50;;;;;;4935447;29;20535;-75
2022/04/26 10:21:40;;;;;;;9.70;3.92;;;22.00;42.60;;;;;;4935770;29;20043;-75
2022/04/26 10:24:14;;;;;;;13.10;4.32;;;22.00;42.70;;;;;;4934191;29;20039;-75
2022/04/26 10:26:40;;;;;;;10.13;4.45;;;22.00;43.30;;;;;;4918427;29;20027;-75
2022/04/26 10:29:06;;;;;;;12.25;4.93;;;22.00;43.00;;;;;;4935599;29;20388;-74
2022/04/26 10:31:40;;;;;;;11.32;4.10;;;22.10;43.20;;;;;;4935097;29;20036;-75
2022/04/26 10:34:18;;;;;;;13.13;4.35;;;22.00;43.20;;;;;;4934166;28;20032;-74
2022/04/26 10:36:45;;;;;;;8.80;4.03;;;22.00;43.50;;;;;;4918454;29;20054;-74
2022/04/26 10:39:12;;;;;;;7.60;3.95;;;22.00;43.50;;;;;;4934204;29;20094;-75
2022/04/26 10:41:45;;;;;;;7.60;4.00;;;22.00;43.60;;;;;;4934987;29;20031;-75
2022/04/26 10:44:15;;;;;;;7.80;4.00;;;22.00;43.70;;;;;;4934958;29;20110;-75
2022/04/26 10:46:42;;;;;;;10.18;3.92;;;22.00;43.90;;;;;;4934899;29;20035;-75
2022/04/26 10:49:29;;;;;;;8.15;3.65;;;22.00;44.00;;;;;;4935249;29;20396;-74
2022/04/26 10:52:32;;;;;;;9.77;3.78;;;22.10;44.10;;;;;;4934722;29;20076;-74
2022/04/26 10:55:03;;;;;;;10.18;4.00;;;22.10;44.20;;;;;;4934571;29;20028;-74
2022/04/26 10:57:34;;;;;;;8.18;3.53;;;22.10;44.20;;;;;;4934912;29;20023;-74
2022/04/26 11:00:05;;;;;;;7.55;4.18;;;22.00;44.30;;;;;;4934662;29;20036;-74
2022/04/26 11:02:33;;;;;;;7.88;3.72;;;22.10;44.40;;;;;;4934790;29;20055;-75
2022/04/26 11:05:11;;;;;;;10.35;3.72;;;22.10;44.50;;;;;;4934391;29;20032;-74
2022/04/26 11:07:47;;;;;;;8.68;3.80;;;22.10;44.70;;;;;;4934964;29;20079;-74
2022/04/26 11:10:19;;;;;;;7.88;3.72;;;22.10;45.30;;;;;;4933323;29;20400;-74
2022/04/26 11:12:45;;;;;;;8.82;3.90;;;22.00;44.80;;;;;;4934637;29;20657;-74
2022/04/26 11:15:19;;;;;;;8.15;3.50;;;22.00;44.90;;;;;;4917300;29;20035;-75
2022/04/26 11:17:45;;;;;;;8.40;4.43;;;22.00;45.00;;;;;;4933959;29;20032;-74
2022/04/26 11:20:14;;;;;;;7.00;3.47;;;22.10;45.10;;;;;;4934250;29;20036;-75
2022/04/26 11:22:48;;;;;;;8.73;3.47;;;22.00;45.10;;;;;;4934468;29;20031;-74
2022/04/26 11:28:06;;;;;;;11.05;4.13;;;22.10;45.40;;;;;;4934494;29;20028;-74
2022/04/26 11:30:45;;;;;;;10.27;3.72;;;22.10;45.40;;;;;;4934158;29;20027;-74
2022/04/26 11:33:24;;;;;;;7.00;3.53;;;22.00;45.50;;;;;;4934230;29;20392;-74
2022/04/26 11:36:05;;;;;;;7.70;3.60;;;22.10;45.60;;;;;;4934120;29;20028;-74
2022/04/26 11:38:30;;;;;;;7.53;3.50;;;22.00;45.60;;;;;;4917384;29;20481;-75
2022/04/26 11:41:01;;;;;;;9.27;3.60;;;22.10;46.30;;;;;;4934136;29;20034;-74
2022/04/26 11:43:33;;;;;;;9.43;4.03;;;22.00;45.80;;;;;;4933871;29;20032;-74
2022/04/26 11:46:00;;;;;;;7.03;3.50;;;22.10;45.90;;;;;;4932690;29;20480;-74
2022/04/26 11:48:29;;;;;;;7.55;3.40;;;22.10;46.00;;;;;;4934088;29;20051;-74
2022/04/26 11:50:57;;;;;;;7.65;3.53;;;22.00;46.00;;;;;;4933822;29;20116;-74
2022/04/26 11:53:36;;;;;;;6.57;3.25;;;22.00;46.00;;;;;;4916801;29;20024;-74
2022/04/26 11:56:04;;;;;;;9.80;3.50;;;22.00;46.10;;;;;;4933895;29;20035;-74
2022/04/26 11:58:31;;;;;;;7.30;3.65;;;22.10;46.20;;;;;;4934373;29;20039;-74
2022/04/26 12:01:02;;;;;;;5.10;3.13;;;22.10;46.20;;;;;;4933504;29;20085;-74
2022/04/26 12:03:31;;;;;;;6.80;3.30;;;22.10;46.30;;;;;;4933617;29;20028;-75
2022/04/26 12:06:03;;;;;;;5.35;3.10;;;22.10;46.30;;;;;;4932720;29;20452;-74
2022/04/26 12:08:39;;;;;;;7.53;3.03;;;22.10;46.30;;;;;;4932867;29;20020;-74
2022/04/26 12:11:20;;;;;;;7.07;3.47;;;22.10;46.40;;;;;;4933735;29;20501;-74
2022/04/26 12:13:57;;;;;;;6.68;3.40;;;22.10;46.50;;;;;;4932471;29;20032;-74
2022/04/26 12:16:23;;;;;;;5.53;3.10;;;22.10;46.50;;;;;;4932676;29;20039;-73
2022/04/26 12:18:54;;;;;;;5.15;3.10;;;22.10;46.50;;;;;;4932690;29;20028;-74
2022/04/26 12:21:24;;;;;;;8.25;3.30;;;22.10;46.60;;;;;;4933511;29;20044;-74
2022/04/26 12:24:31;;;;;;;5.95;3.22;;;22.10;46.60;;;;;;4933598;29;20039;-74
2022/04/26 12:27:02;;;;;;;5.72;3.28;;;22.00;46.60;;;;;;4933651;29;20692;-74
2022/04/26 12:29:38;;;;;;;7.50;3.17;;;22.00;46.70;;;;;;4917029;29;20086;-74
2022/04/26 12:32:06;;;;;;;6.55;3.03;;;22.10;46.70;;;;;;4933657;29;20032;-74
2022/04/26 12:34:32;;;;;;;5.22;3.08;;;22.10;46.80;;;;;;4933323;29;20031;-74
2022/04/26 12:37:22;;;;;;;5.05;3.00;;;22.00;46.70;;;;;;4932625;29;20043;-74
2022/04/26 12:40:05;;;;;;;6.70;3.05;;;22.00;46.80;;;;;;4916740;29;20130;-74
2022/04/26 12:42:36;;;;;;;5.78;2.92;;;22.10;46.90;;;;;;4932392;29;20027;-74
2022/04/26 12:45:04;;;;;;;6.25;3.13;;;22.00;46.90;;;;;;4932865;29;20091;-73
2022/04/26 12:50:31;;;;;;;5.97;3.20;;;22.00;46.90;;;;;;4931999;29;20030;-73
2022/04/26 12:53:01;;;;;;;5.88;3.03;;;22.00;47.00;;;;;;4916438;29;20054;-73
2022/04/26 12:55:40;;;;;;;5.25;2.95;;;22.10;47.00;;;;;;4916674;29;20040;-73
2022/04/26 12:58:13;;;;;;;7.45;3.42;;;22.10;47.10;;;;;;4932574;28;20036;-74
2022/04/26 13:00:52;;;;;;;5.55;2.80;;;22.00;47.00;;;;;;4932428;29;20390;-73
2022/04/26 13:03:21;;;;;;;7.25;3.15;;;22.00;47.00;;;;;;4916191;29;20122;-74
2022/04/26 13:05:52;;;;;;;8.20;3.00;;;22.00;47.10;;;;;;4932122;29;20043;-74
2022/04/26 13:08:20;;;;;;;7.95;3.25;;;22.10;47.20;;;;;;4932278;29;20036;-74
2022/04/26 13:10:47;;;;;;;4.65;2.63;;;22.00;47.20;;;;;;4932243;29;20156;-74
2022/04/26 13:13:14;;;;;;;5.47;2.85;;;22.00;47.20;;;;;;4931975;29;20532;-75
2022/04/26 13:15:41;;;;;;;6.35;3.13;;;22.00;47.20;;;;;;4933757;29;20317;-75
2022/04/26 13:18:08;;;;;;;5.55;3.10;;;22.00;47.80;;;;;;4936837;29;20031;-75
2022/04/26 13:20:34;;;;;;;7.70;3.00;;;22.00;47.30;;;;;;4939151;29;20082;-74
2022/04/26 13:23:01;;;;;;;5.72;2.90;;;22.00;47.20;;;;;;4954924;28;20031;-75
2022/04/26 13:25:27;;;;;;;7.63;3.08;;;22.00;47.20;;;;;;4955525;28;20208;-75
2022/04/26 13:27:53;;;;;;;5.85;3.05;;;22.00;47.30;;;;;;4938339;29;20387;-75
2022/04/26 13:30:19;;;;;;;5.40;2.95;;;22.00;47.30;;;;;;4955343;28;20511;-75
2022/04/26 13:32:45;;;;;;;6.47;3.00;;;22.00;47.40;;;;;;4954188;29;20503;-75
2022/04/26 13:35:11;;;;;;;5.25;3.03;;;22.00;47.40;;;;;;4955502;28;20035;-74
2022/04/26 13:37:38;;;;;;;6.03;2.78;;;22.00;47.50;;;;;;4954560;29;20035;-75
2022/04/26 13:40:05;;;;;;;4.82;2.83;;;22.00;47.50;;;;;;4954478;29;20027;-75
2022/04/26 13:42:31;;;;;;;5.75;3.17;;;22.00;47.50;;;;;;4953680;29;20082;-75
2022/04/26 13:44:59;;;;;;;4.97;2.78;;;22.00;47.50;;;;;;4937566;29;20070;-75
2022/04/26 13:47:26;;;;;;;4.82;2.80;;;22.00;47.60;;;;;;4954176;29;20034;-75
2022/04/26 13:49:52;;;;;;;5.85;2.97;;;22.00;47.60;;;;;;4955091;28;20027;-74
2022/04/26 13:52:20;;;;;;;5.70;2.97;;;22.00;47.60;;;;;;4954062;29;20027;-75
2022/04/26 13:54:46;;;;;;;4.80;2.78;;;22.00;47.70;;;;;;4955086;28;20032;-74
2022/04/26 13:57:12;;;;;;;6.80;3.13;;;22.00;47.60;;;;;;4953902;29;20216;-75
2022/04/26 13:59:38;;;;;;;5.10;2.72;;;22.00;47.70;;;;;;4955194;28;20063;-76
2022/04/26 14:02:06;;;;;;;6.35;3.22;;;22.00;47.70;;;;;;4954998;29;20050;-76
2022/04/26 14:04:32;;;;;;;5.57;2.70;;;22.00;47.70;;;;;;4954787;29;20609;-74
2022/04/26 14:06:58;;;;;;;5.88;2.78;;;22.00;47.70;;;;;;4955054;28;20031;-74
2022/04/26 14:09:24;;;;;;;5.20;2.75;;;22.00;47.70;;;;;;4954819;29;20393;-74
2022/04/26 14:11:55;;;;;;;5.00;2.80;;;22.00;47.70;;;;;;4954785;28;20447;-74
2022/04/26 14:22:35;;;;;;;4.55;2.72;;;22.00;47.70;;;;;;4955465;29;20059;-75
2022/04/26 14:25:08;;;;;;;6.70;2.92;;;22.00;47.70;;;;;;4955726;29;20512;-75
2022/04/26 14:27:35;;;;;;;4.20;2.70;;;22.00;47.70;;;;;;4956122;28;20023;-75
2022/04/26 14:30:03;;;;;;;6.47;2.63;;;22.00;47.80;;;;;;4954686;28;20058;-75
2022/04/26 14:32:28;;;;;;;4.53;2.80;;;22.00;47.80;;;;;;4954573;29;20424;-75
2022/04/26 14:34:54;;;;;;;5.45;2.72;;;22.00;47.80;;;;;;4953047;29;20065;-75
2022/04/26 14:37:22;;;;;;;6.18;2.60;;;22.00;47.80;;;;;;4937138;29;20484;-75
2022/04/26 14:39:49;;;;;;;3.78;2.30;;;22.00;47.90;;;;;;4954640;28;20023;-75
2022/04/26 14:42:15;;;;;;;4.13;2.50;;;22.00;47.80;;;;;;4954253;28;20042;-75
2022/04/26 14:44:41;;;;;;;4.43;2.80;;;22.00;47.80;;;;;;4954035;29;20057;-75
2022/04/26 14:47:07;;;;;;;4.78;2.58;;;22.00;47.80;;;;;;4954297;28;20046;-74
2022/04/26 14:49:33;;;;;;;4.55;2.80;;;22.00;47.90;;;;;;4954124;29;20035;-74
2022/04/26 14:51:59;;;;;;;3.30;2.25;;;22.00;47.90;;;;;;4954090;28;20468;-74
2022/04/26 14:54:25;;;;;;;4.55;2.70;;;22.00;47.90;;;;;;4953780;28;20118;-73
2022/04/26 14:56:51;;;;;;;3.80;2.50;;;22.00;47.90;;;;;;4954117;28;20114;-74
2022/04/26 14:59:18;;;;;;;8.05;2.92;;;22.00;48.00;;;;;;4954001;29;20035;-74
2022/04/26 15:01:46;;;;;;;4.13;2.40;;;22.00;48.00;;;;;;4953046;29;20377;-74
2022/04/26 15:04:12;;;;;;;3.95;2.40;;;22.00;48.20;;;;;;4953492;29;20038;-74
2022/04/26 15:06:38;;;;;;;3.67;2.58;;;22.00;48.00;;;;;;4954169;28;20038;-74
2022/04/26 15:11:48;;;;;;;4.38;2.40;;;22.00;48.00;;;;;;4953747;28;20028;-74
2022/04/26 15:16:59;;;;;;;3.83;2.40;;;22.00;48.10;;;;;;4952537;29;20027;-74
2022/04/26 15:19:25;;;;;;;4.80;2.42;;;22.00;48.10;;;;;;4952822;29;20042;-74
2022/04/26 15:21:53;;;;;;;4.05;2.42;;;22.00;48.20;;;;;;4952575;29;20035;-74
2022/04/26 15:24:21;;;;;;;4.68;2.78;;;22.00;48.10;;;;;;4952123;29;20043;-74
2022/04/26 15:26:48;;;;;;;4.55;2.53;;;22.00;48.10;;;;;;4936292;29;20040;-74
2022/04/26 15:29:15;;;;;;;4.15;2.40;;;22.00;48.10;;;;;;4953398;29;20027;-73
2022/04/26 15:31:40;;;;;;;4.30;2.78;;;22.10;48.20;;;;;;4936130;29;20488;-74
2022/04/26 15:34:06;;;;;;;4.38;2.70;;;22.00;48.10;;;;;;4951882;29;20038;-71
2022/04/26 15:36:33;;;;;;;3.90;2.47;;;22.00;48.20;;;;;;4936251;29;20043;-72
2022/04/26 15:38:58;;;;;;;4.45;2.38;;;22.00;48.70;;;;;;4952922;28;20034;-72
2022/04/26 15:41:25;;;;;;;4.30;2.20;;;22.00;48.20;;;;;;4952116;29;20027;-74
2022/04/26 15:43:50;;;;;;;4.07;2.50;;;22.00;48.10;;;;;;4952916;28;20038;-74
2022/04/26 15:46:16;;;;;;;4.45;2.20;;;22.00;48.20;;;;;;4952025;29;20031;-74
2022/04/26 15:48:47;;;;;;;4.47;2.35;;;22.00;48.20;;;;;;4953311;29;20023;-74
2022/04/26 15:51:16;;;;;;;3.83;2.30;;;22.00;48.20;;;;;;4953141;29;20031;-74
2022/04/26 15:53:46;;;;;;;5.33;2.40;;;22.00;48.20;;;;;;4953259;28;20121;-74
2022/04/26 15:56:12;;;;;;;4.15;2.28;;;22.00;48.20;;;;;;4952858;29;20263;-74
2022/04/26 15:58:38;;;;;;;3.38;2.30;;;22.00;48.30;;;;;;4935960;29;20035;-72
2022/04/26 16:01:04;;;;;;;6.38;2.67;;;22.00;48.30;;;;;;4952935;28;20122;-71
2022/04/26 16:03:29;;;;;;;4.05;2.50;;;22.00;48.30;;;;;;4952917;29;20035;-73
2022/04/26 16:05:55;;;;;;;5.03;2.65;;;22.00;48.30;;;;;;4935904;29;20107;-74
2022/04/26 16:08:21;;;;;;;4.55;2.50;;;22.00;48.30;;;;;;4953301;29;20051;-74
2022/04/26 16:21:44;;;;;;;4.88;2.20;;;22.00;49.00;;;;;;4952597;28;20046;-74
2022/04/26 16:24:10;;;;;;;3.63;2.50;;;22.00;48.50;;;;;;4952702;29;20028;-74
2022/04/26 16:26:36;;;;;;;4.07;2.35;;;22.00;48.40;;;;;;4951557;29;20518;-73
2022/04/26 16:29:04;;;;;;;4.97;2.67;;;22.00;48.40;;;;;;4952886;28;20515;-74
2022/04/26 16:31:30;;;;;;;2.60;2.05;;;22.00;48.50;;;;;;4951506;29;20024;-75
2022/04/26 16:33:57;;;;;;;4.22;2.13;;;22.00;48.40;;;;;;4951436;29;20404;-73
2022/04/26 16:36:25;;;;;;;2.97;1.98;;;22.00;48.50;;;;;;4952711;29;20488;-74
2022/04/26 16:38:54;;;;;;;4.35;2.17;;;22.00;48.40;;;;;;4952480;28;20365;-74
2022/04/26 16:41:21;;;;;;;3.33;2.38;;;22.00;48.40;;;;;;4951535;29;20027;-75
2022/04/26 16:43:48;;;;;;;4.10;2.40;;;22.00;48.50;;;;;;4952881;29;20027;-74
2022/04/26 16:46:16;;;;;;;3.65;2.03;;;22.00;48.50;;;;;;4951794;29;20039;-74
2022/04/26 16:48:43;;;;;;;3.45;2.30;;;22.00;48.40;;;;;;4951701;29;20500;-74
2022/04/26 16:51:09;;;;;;;3.47;2.20;;;22.00;48.50;;;;;;4953607;28;20391;-74
2022/04/26 16:53:35;;;;;;;3.72;2.25;;;22.00;48.50;;;;;;4951548;29;20019;-74
2022/04/26 16:56:03;;;;;;;4.18;2.70;;;22.00;48.50;;;;;;4955789;29;20034;-75
2022/04/26 16:58:30;;;;;;;3.50;2.30;;;22.00;48.50;;;;;;4956435;28;20042;-74
2022/04/26 17:00:56;;;;;;;4.82;2.55;;;22.00;48.60;;;;;;4956005;28;20019;-75
2022/04/26 17:03:23;;;;;;;4.07;2.30;;;22.00;48.50;;;;;;4955836;29;20492;-74
2022/04/26 17:05:48;;;;;;;3.97;2.15;;;22.00;48.60;;;;;;4938920;29;20027;-74
2022/04/26 17:08:16;;;;;;;3.65;2.20;;;22.00;48.60;;;;;;4939203;29;20042;-73
2022/04/26 17:10:43;;;;;;;3.38;2.28;;;22.00;48.60;;;;;;4954418;29;20277;-74